createdAt,value
2023-01-01T00:00:49.756Z,0.90
2023-01-01T00:03:19.475Z,1.47
2023-01-01T00:05:47.671Z,0.97
2023-01-01T00:08:15.810Z,0.70
2023-01-01T00:10:43.997Z,0.70
2023-01-01T00:13:15.546Z,0.50
2023-01-01T00:15:43.744Z,1.20
2023-01-01T00:18:11.890Z,0.40
2023-01-01T00:20:41.416Z,0.57
2023-01-01T00:23:09.633Z,0.57
2023-01-01T00:25:37.832Z,0.63
2023-01-01T00:28:06.217Z,1.23
2023-01-01T00:30:34.495Z,1.03
2023-01-01T00:33:02.721Z,1.03
2023-01-01T00:35:30.942Z,0.60
2023-01-01T00:38:00.530Z,0.90
2023-01-01T00:40:28.805Z,2.17
2023-01-01T00:42:57.250Z,0.73
2023-01-01T00:45:25.590Z,0.33
2023-01-01T00:47:55.298Z,0.40
2023-01-01T00:50:24.569Z,0.53
2023-01-01T00:52:52.817Z,2.73
2023-01-01T00:55:22.345Z,2.13
2023-01-01T00:57:50.536Z,2.43
2023-01-01T01:00:20.185Z,3.40
2023-01-01T01:02:48.527Z,1.93
2023-01-01T01:05:16.814Z,6.97
2023-01-01T01:07:44.988Z,2.47
2023-01-01T01:10:13.250Z,3.83
2023-01-01T01:12:42.992Z,2.67
2023-01-01T01:15:12.336Z,3.47
2023-01-01T01:17:40.864Z,4.40
2023-01-01T01:20:10.453Z,3.30
2023-01-01T01:22:38.723Z,1.83
2023-01-01T01:25:08.809Z,1.50
2023-01-01T01:27:37.074Z,1.07
2023-01-01T01:30:09.600Z,0.80
2023-01-01T01:32:37.819Z,1.13
2023-01-01T01:35:07.021Z,0.93
2023-01-01T01:37:35.259Z,0.63
2023-01-01T01:40:03.493Z,1.00
2023-01-01T01:42:31.632Z,0.70
2023-01-01T01:45:03.004Z,0.70
2023-01-01T01:47:38.837Z,0.50
2023-01-01T01:50:14.647Z,1.17
2023-01-01T01:52:55.490Z,0.40
2023-01-01T01:55:24.080Z,0.40
2023-01-01T01:57:52.267Z,0.90
2023-01-01T02:00:20.706Z,0.40
2023-01-01T02:02:56.789Z,0.40
2023-01-01T02:05:26.231Z,0.50
2023-01-01T02:07:56.468Z,0.60
2023-01-01T02:10:24.735Z,0.70
2023-01-01T02:12:52.967Z,0.27
2023-01-01T02:15:24.527Z,0.50
2023-01-01T02:18:03.097Z,0.40
2023-01-01T02:20:44.081Z,0.80
2023-01-01T02:23:56.343Z,0.37
2023-01-01T02:26:54.014Z,0.70
2023-01-01T02:29:43.598Z,0.97
2023-01-01T02:32:19.785Z,0.73
2023-01-01T02:34:55.942Z,0.97
2023-01-01T02:37:27.732Z,1.13
2023-01-01T02:40:00.286Z,0.97
2023-01-01T02:42:30.712Z,0.23
2023-01-01T02:45:01.649Z,0.67
2023-01-01T02:47:29.828Z,0.60
2023-01-01T02:50:09.687Z,1.10
2023-01-01T02:53:07.878Z,0.80
2023-01-01T02:55:53.864Z,0.57
2023-01-01T02:58:47.906Z,0.40
2023-01-01T03:01:30.295Z,0.70
2023-01-01T03:04:08.753Z,0.53
2023-01-01T03:06:50.515Z,0.60
2023-01-01T03:09:29.406Z,0.63
2023-01-01T03:12:07.457Z,0.60
2023-01-01T03:14:48.584Z,0.47
2023-01-01T03:17:27.868Z,0.50
2023-01-01T03:19:59.739Z,1.03
2023-01-01T03:22:34.780Z,0.53
2023-01-01T03:25:10.181Z,0.67
2023-01-01T03:27:44.803Z,0.40
2023-01-01T03:30:15.757Z,0.60
2023-01-01T03:33:03.622Z,0.80
2023-01-01T03:35:44.692Z,0.50
2023-01-01T03:38:20.694Z,0.53
2023-01-01T03:40:55.215Z,0.30
2023-01-01T03:43:35.074Z,0.40
2023-01-01T03:46:06.450Z,0.40
2023-01-01T03:49:02.697Z,0.30
2023-01-01T03:51:58.290Z,0.63
2023-01-01T03:54:44.193Z,0.50
2023-01-01T03:57:22.573Z,0.50
2023-01-01T04:00:00.174Z,0.60
2023-01-01T04:02:35.801Z,0.67
2023-01-01T04:05:07.828Z,0.40
2023-01-01T04:07:36.795Z,0.80
2023-01-01T04:10:17.273Z,0.60
2023-01-01T04:12:51.398Z,0.40
2023-01-01T04:15:22.809Z,0.67
2023-01-01T04:17:51.510Z,0.50
2023-01-01T04:20:22.208Z,0.60
2023-01-01T04:22:50.434Z,0.40
2023-01-01T04:25:19.182Z,0.63
2023-01-01T04:27:47.387Z,0.60
2023-01-01T04:30:16.874Z,0.40
2023-01-01T04:32:45.679Z,0.60
2023-01-01T04:35:15.662Z,0.23
2023-01-01T04:37:46.702Z,0.60
2023-01-01T04:40:15.911Z,0.40
2023-01-01T04:42:44.380Z,0.97
2023-01-01T04:45:14.988Z,0.53
2023-01-01T04:47:44.473Z,0.60
2023-01-01T04:50:12.789Z,0.60
2023-01-01T04:52:40.992Z,0.37
2023-01-01T04:55:11.386Z,0.50
2023-01-01T04:57:39.541Z,0.73
2023-01-01T05:00:09.713Z,0.50
2023-01-01T05:02:38.015Z,0.50
2023-01-01T05:05:06.878Z,0.53
2023-01-01T05:07:35.046Z,0.43
2023-01-01T05:10:03.357Z,0.40
2023-01-01T05:12:32.895Z,0.53
2023-01-01T05:15:01.113Z,0.60
2023-01-01T05:17:29.250Z,0.43
2023-01-01T05:19:57.395Z,0.60
2023-01-01T05:22:25.551Z,0.40
2023-01-01T05:24:54.482Z,0.80
2023-01-01T05:27:22.673Z,0.40
2023-01-01T05:29:52.166Z,0.30
2023-01-01T05:32:20.343Z,0.77
2023-01-01T05:34:48.505Z,1.10
2023-01-01T05:37:16.714Z,0.50
2023-01-01T05:39:44.855Z,0.53
2023-01-01T05:42:13.031Z,0.30
2023-01-01T05:44:41.146Z,0.83
2023-01-01T05:47:10.631Z,0.60
2023-01-01T05:49:39.563Z,1.13
2023-01-01T05:52:07.684Z,0.30
2023-01-01T05:54:35.951Z,0.30
2023-01-01T05:57:04.249Z,0.43
2023-01-01T05:59:32.477Z,0.70
2023-01-01T06:02:00.688Z,0.40
2023-01-01T06:04:30.393Z,0.77
2023-01-01T06:06:58.539Z,0.40
2023-01-01T06:09:28.101Z,0.63
2023-01-01T06:11:56.245Z,1.00
2023-01-01T06:14:24.465Z,0.37
2023-01-01T06:16:52.738Z,1.23
2023-01-01T06:19:20.974Z,0.50
2023-01-01T06:21:50.527Z,0.80
2023-01-01T06:24:18.680Z,0.70
2023-01-01T06:26:46.880Z,0.60
2023-01-01T06:29:15.094Z,1.17
2023-01-01T06:31:43.242Z,0.57
2023-01-01T06:34:11.516Z,0.77
2023-01-01T06:36:39.902Z,0.93
2023-01-01T06:39:09.698Z,0.93
2023-01-01T06:41:38.187Z,0.50
2023-01-01T06:44:06.770Z,0.67
2023-01-01T06:46:37.158Z,0.80
2023-01-01T06:49:08.469Z,0.43
2023-01-01T06:51:41.067Z,0.63
2023-01-01T06:54:12.436Z,0.90
2023-01-01T06:56:40.931Z,0.87
2023-01-01T06:59:09.114Z,0.77
2023-01-01T07:01:40.503Z,0.50
2023-01-01T07:04:15.578Z,0.33
2023-01-01T07:06:44.105Z,0.50
2023-01-01T07:09:13.696Z,0.80
2023-01-01T07:11:41.859Z,0.57
2023-01-01T07:14:10.016Z,0.50
2023-01-01T07:16:38.229Z,0.70
2023-01-01T07:19:06.433Z,0.57
2023-01-01T07:21:43.318Z,0.70
2023-01-01T07:24:15.433Z,0.60
2023-01-01T07:26:43.979Z,0.50
2023-01-01T07:29:12.886Z,0.57
2023-01-01T07:31:44.123Z,0.50
2023-01-01T07:34:16.466Z,0.83
2023-01-01T07:36:44.996Z,0.57
2023-01-01T07:39:14.519Z,0.70
2023-01-01T07:41:43.305Z,0.57
2023-01-01T07:44:11.450Z,0.80
2023-01-01T07:46:39.855Z,0.77
2023-01-01T07:49:08.060Z,0.60
2023-01-01T07:51:36.463Z,0.40
2023-01-01T07:54:07.426Z,0.90
2023-01-01T07:56:37.553Z,0.50
2023-01-01T07:59:06.129Z,0.30
2023-01-01T08:01:38.219Z,1.10
2023-01-01T08:04:06.960Z,0.77
2023-01-01T08:06:35.268Z,0.33
2023-01-01T08:09:03.536Z,0.57
2023-01-01T08:11:31.751Z,0.50
2023-01-01T08:14:01.452Z,0.93
2023-01-01T08:16:29.669Z,0.50
2023-01-01T08:18:58.174Z,0.57
2023-01-01T08:21:26.387Z,0.27
2023-01-01T08:23:54.510Z,0.47
2023-01-01T08:26:31.263Z,0.37
2023-01-01T08:29:03.524Z,0.67
2023-01-01T08:31:31.938Z,0.60
2023-01-01T08:34:00.219Z,0.60
2023-01-01T08:36:28.520Z,0.50
2023-01-01T08:38:56.693Z,0.57
2023-01-01T08:41:24.924Z,0.87
2023-01-01T08:43:53.518Z,0.80
2023-01-01T08:46:23.123Z,0.40
2023-01-01T08:48:51.303Z,0.80
2023-01-01T08:51:19.741Z,0.57
2023-01-01T08:53:51.216Z,0.53
2023-01-01T08:56:20.305Z,0.57
2023-01-01T08:58:48.940Z,0.60
2023-01-01T09:01:17.263Z,0.40
2023-01-01T09:03:46.960Z,0.40
2023-01-01T09:06:15.605Z,0.70
2023-01-01T09:08:43.900Z,0.67
2023-01-01T09:11:24.807Z,0.50
2023-01-01T09:13:53.948Z,0.30
2023-01-01T09:16:23.898Z,0.40
2023-01-01T09:18:53.605Z,0.80
2023-01-01T09:21:21.824Z,0.43
2023-01-01T09:23:50.067Z,0.40
2023-01-01T09:26:18.308Z,0.57
2023-01-01T09:28:46.501Z,0.33
2023-01-01T09:31:14.770Z,0.40
2023-01-01T09:33:43.175Z,0.77
2023-01-01T09:36:30.055Z,0.60
2023-01-01T09:39:00.373Z,0.70
2023-01-01T09:41:52.268Z,0.67
2023-01-01T09:44:42.713Z,1.03
2023-01-01T09:47:25.142Z,0.37
2023-01-01T09:49:57.395Z,0.80
2023-01-01T09:52:40.851Z,0.57
2023-01-01T09:55:22.189Z,0.43
2023-01-01T09:57:50.491Z,0.47
2023-01-01T10:00:20.419Z,0.40
2023-01-01T10:03:18.293Z,0.40
2023-01-01T10:05:56.795Z,0.33
2023-01-01T10:08:57.623Z,0.50
2023-01-01T10:11:35.685Z,0.30
2023-01-01T10:14:17.218Z,0.10
2023-01-01T10:16:52.135Z,0.83
2023-01-01T10:19:31.514Z,0.50
2023-01-01T10:22:08.488Z,0.43
2023-01-01T10:24:46.629Z,0.50
2023-01-01T10:27:31.974Z,0.53
2023-01-01T10:30:05.002Z,0.50
2023-01-01T10:32:36.592Z,0.40
2023-01-01T10:35:14.727Z,0.40
2023-01-01T10:37:43.982Z,0.33
2023-01-01T10:40:20.616Z,0.87
2023-01-01T10:42:51.805Z,0.63
2023-01-01T10:45:30.750Z,0.77
2023-01-01T10:48:14.587Z,0.87
2023-01-01T10:50:50.766Z,0.70
2023-01-01T10:53:27.865Z,1.27
2023-01-01T10:56:09.170Z,0.40
2023-01-01T10:58:42.768Z,0.20
2023-01-01T11:01:14.079Z,0.53
2023-01-01T11:04:00.552Z,0.40
2023-01-01T11:06:34.814Z,0.47
2023-01-01T11:09:07.907Z,1.10
2023-01-01T11:11:45.078Z,0.47
2023-01-01T11:14:23.257Z,0.50
2023-01-01T11:16:52.038Z,0.57
2023-01-01T11:19:29.356Z,0.90
2023-01-01T11:21:57.618Z,0.77
2023-01-01T11:24:28.631Z,0.37
2023-01-01T11:27:20.243Z,0.60
2023-01-01T11:29:48.948Z,0.43
2023-01-01T11:32:23.590Z,1.00
2023-01-01T11:35:00.214Z,0.87
2023-01-01T11:37:34.104Z,0.33
2023-01-01T11:40:04.792Z,0.50
2023-01-01T11:42:37.823Z,0.53
2023-01-01T11:45:17.974Z,0.50
2023-01-01T11:47:51.908Z,0.50
2023-01-01T11:50:31.042Z,0.40
2023-01-01T11:53:18.083Z,0.37
2023-01-01T11:55:51.171Z,0.47
2023-01-01T11:58:32.028Z,0.33
2023-01-01T12:01:05.710Z,0.33
2023-01-01T12:03:42.415Z,0.53
2023-01-01T12:06:20.233Z,0.50
2023-01-01T12:08:57.586Z,0.67
2023-01-01T12:11:34.000Z,1.07
2023-01-01T12:14:16.990Z,0.63
2023-01-01T12:16:56.749Z,0.40
2023-01-01T12:19:29.580Z,0.40
2023-01-01T12:22:01.939Z,0.70
2023-01-01T12:24:36.278Z,0.80
2023-01-01T12:27:20.064Z,0.67
2023-01-01T12:30:11.906Z,0.60
2023-01-01T12:33:08.495Z,0.30
2023-01-01T12:35:57.386Z,0.37
2023-01-01T12:38:49.029Z,0.50
2023-01-01T12:41:30.853Z,0.53
2023-01-01T12:44:12.959Z,0.50
2023-01-01T12:46:54.845Z,0.20
2023-01-01T12:50:03.405Z,0.70
2023-01-01T12:52:48.188Z,0.70
2023-01-01T12:55:49.053Z,0.47
2023-01-01T12:58:26.987Z,0.60
2023-01-01T13:01:00.452Z,0.70
2023-01-01T13:03:35.435Z,1.03
2023-01-01T13:06:05.843Z,0.50
2023-01-01T13:08:36.631Z,0.50
2023-01-01T13:11:06.183Z,0.90
2023-01-01T13:13:34.543Z,0.73
2023-01-01T13:16:04.502Z,0.60
2023-01-01T13:18:37.071Z,0.60
2023-01-01T13:21:20.503Z,0.60
2023-01-01T13:23:59.815Z,0.47
2023-01-01T13:26:41.819Z,0.90
2023-01-01T13:29:36.405Z,0.53
2023-01-01T13:32:10.256Z,0.60
2023-01-01T13:35:05.573Z,0.80
2023-01-01T13:37:45.380Z,0.43
2023-01-01T13:40:52.701Z,1.10
2023-01-01T13:43:30.283Z,0.67
2023-01-01T13:46:13.001Z,1.20
2023-01-01T13:49:16.528Z,0.40
2023-01-01T13:52:19.139Z,0.90
2023-01-01T13:55:57.537Z,1.00
2023-01-01T13:59:20.829Z,0.40
2023-01-01T14:02:01.699Z,0.70
2023-01-01T14:04:40.620Z,0.87
2023-01-01T14:10:24.364Z,0.63
2023-01-01T14:12:54.651Z,0.80
2023-01-01T14:15:29.819Z,0.30
2023-01-01T14:18:01.417Z,0.80
2023-01-01T14:20:37.436Z,0.63
2023-01-01T14:23:15.929Z,0.70
2023-01-01T14:25:46.138Z,1.10
2023-01-01T14:28:22.191Z,0.77
2023-01-01T14:30:51.537Z,0.80
2023-01-01T14:33:26.787Z,0.27
2023-01-01T14:35:56.350Z,0.83
2023-01-01T14:38:29.529Z,0.70
2023-01-01T14:41:07.793Z,0.77
2023-01-01T14:43:38.679Z,0.67
2023-01-01T14:46:11.387Z,0.70
2023-01-01T14:48:46.074Z,0.60
2023-01-01T14:51:17.700Z,0.90
2023-01-01T14:53:49.807Z,1.00
2023-01-01T14:56:27.122Z,0.80
2023-01-01T14:59:03.769Z,0.67
2023-01-01T15:01:32.043Z,0.80
2023-01-01T15:04:03.387Z,0.80
2023-01-01T15:06:53.380Z,1.23
2023-01-01T15:09:23.018Z,0.70
2023-01-01T15:11:54.048Z,0.80
2023-01-01T15:14:37.151Z,0.60
2023-01-01T15:17:08.441Z,0.60
2023-01-01T15:19:41.003Z,0.70
2023-01-01T15:22:21.200Z,0.70
2023-01-01T15:24:51.528Z,0.90
2023-01-01T15:27:26.308Z,0.80
2023-01-01T15:29:56.838Z,0.70
2023-01-01T15:32:29.432Z,0.93
2023-01-01T15:35:00.792Z,0.67
2023-01-01T15:37:36.358Z,0.60
2023-01-01T15:40:35.543Z,0.33
2023-01-01T15:43:22.682Z,1.00
2023-01-01T15:46:00.500Z,0.90
2023-01-01T15:48:37.283Z,1.00
2023-01-01T15:51:18.966Z,0.77
2023-01-01T15:53:55.608Z,1.00
2023-01-01T15:56:29.062Z,0.90
2023-01-01T15:59:08.733Z,1.10
2023-01-01T16:01:41.780Z,0.90
2023-01-01T16:04:15.177Z,0.67
2023-01-01T16:06:49.242Z,0.57
2023-01-01T16:09:19.114Z,0.90
2023-01-01T16:11:53.500Z,0.70
2023-01-01T16:14:22.156Z,0.80
2023-01-01T16:16:57.221Z,0.90
2023-01-01T16:19:26.527Z,0.80
2023-01-01T16:21:54.772Z,0.70
2023-01-01T16:24:23.050Z,0.57
2023-01-01T16:26:53.049Z,1.27
2023-01-01T16:29:21.199Z,1.10
2023-01-01T16:31:49.476Z,1.00
2023-01-01T16:34:17.947Z,1.03
2023-01-01T16:36:46.444Z,1.00
2023-01-01T16:39:14.892Z,0.90
2023-01-01T16:41:45.368Z,0.73
2023-01-01T16:44:16.369Z,0.80
2023-01-01T16:46:44.909Z,0.80
2023-01-01T16:49:13.188Z,1.10
2023-01-01T16:51:43.956Z,0.70
2023-01-01T16:54:13.034Z,0.70
2023-01-01T16:56:41.371Z,0.90
2023-01-01T16:59:09.661Z,1.00
2023-01-01T17:01:39.348Z,0.70
2023-01-01T17:04:08.095Z,1.00
2023-01-01T17:06:39.064Z,0.80
2023-01-01T17:09:07.671Z,1.20
2023-01-01T17:11:35.868Z,0.67
2023-01-01T17:14:06.216Z,0.60
2023-01-01T17:16:39.014Z,0.80
2023-01-01T17:19:15.050Z,0.63
2023-01-01T17:21:46.189Z,0.60
2023-01-01T17:24:15.345Z,0.97
2023-01-01T17:26:43.600Z,0.67
2023-01-01T17:29:12.313Z,0.90
2023-01-01T17:31:40.560Z,0.70
2023-01-01T17:34:14.288Z,0.70
2023-01-01T17:36:44.867Z,0.70
2023-01-01T17:39:14.843Z,0.90
2023-01-01T17:41:44.988Z,0.77
2023-01-01T17:44:13.818Z,0.77
2023-01-01T17:46:44.161Z,0.87
2023-01-01T17:49:14.141Z,0.80
2023-01-01T17:51:42.381Z,0.67
2023-01-01T17:54:13.580Z,0.90
2023-01-01T17:56:42.187Z,0.90
2023-01-01T17:59:11.122Z,0.60
2023-01-01T18:01:39.544Z,0.90
2023-01-01T18:04:10.326Z,0.60
2023-01-01T18:06:43.641Z,0.50
2023-01-01T18:09:16.230Z,0.93
2023-01-01T18:11:45.362Z,0.50
2023-01-01T18:14:18.348Z,0.73
2023-01-01T18:16:49.435Z,0.47
2023-01-01T18:19:17.895Z,0.70
2023-01-01T18:21:47.460Z,0.70
2023-01-01T18:24:17.054Z,0.80
2023-01-01T18:26:45.475Z,0.67
2023-01-01T18:29:13.675Z,0.90
2023-01-01T18:31:41.984Z,0.73
2023-01-01T18:34:11.818Z,0.97
2023-01-01T18:36:40.520Z,0.60
2023-01-01T18:39:17.504Z,1.03
2023-01-01T18:42:34.524Z,0.50
2023-01-01T18:45:14.587Z,0.73
2023-01-01T18:47:45.706Z,0.93
2023-01-01T18:50:23.856Z,0.90
2023-01-01T18:52:56.993Z,1.70
2023-01-01T18:55:28.101Z,1.17
2023-01-01T18:58:02.943Z,1.40
2023-01-01T19:00:33.137Z,0.90
2023-01-01T19:03:04.288Z,1.00
2023-01-01T19:05:35.799Z,0.80
2023-01-01T19:08:16.965Z,0.60
2023-01-01T19:10:49.521Z,0.43
2023-01-01T19:13:22.724Z,0.50
2023-01-01T19:15:55.617Z,1.00
2023-01-01T19:18:29.444Z,0.97
2023-01-01T19:21:03.694Z,0.57
2023-01-01T19:23:32.738Z,0.50
2023-01-01T19:26:06.622Z,0.30
2023-01-01T19:28:38.736Z,0.40
2023-01-01T19:31:08.284Z,0.47
2023-01-01T19:33:36.509Z,0.47
2023-01-01T19:36:05.110Z,0.80
2023-01-01T19:38:33.416Z,0.80
2023-01-01T19:41:03.070Z,0.73
2023-01-01T19:43:31.297Z,0.40
2023-01-01T19:45:59.577Z,0.63
2023-01-01T19:48:29.152Z,0.47
2023-01-01T19:50:57.645Z,0.67
2023-01-01T19:53:25.826Z,0.70
2023-01-01T19:55:54.031Z,0.50
2023-01-01T19:58:23.515Z,0.50
2023-01-01T20:00:52.783Z,0.50
2023-01-01T20:06:11.046Z,0.43
2023-01-01T20:08:39.746Z,1.07
2023-01-01T20:11:08.526Z,1.13
2023-01-01T20:13:38.159Z,0.67
2023-01-01T20:16:07.433Z,0.80
2023-01-01T20:18:36.096Z,0.50
2023-01-01T20:21:26.002Z,1.30
2023-01-01T20:23:54.970Z,0.90
2023-01-01T20:26:23.699Z,0.50
2023-01-01T20:29:11.067Z,0.73
2023-01-01T20:31:39.629Z,0.40
2023-01-01T20:34:07.899Z,0.70
2023-01-01T20:36:53.611Z,0.63
2023-01-01T20:39:22.583Z,1.10
2023-01-01T20:41:50.953Z,1.50
2023-01-01T20:44:20.888Z,3.30
2023-01-01T20:46:49.631Z,4.27
2023-01-01T20:49:18.979Z,5.07
2023-01-01T20:51:49.138Z,13.33
2023-01-01T20:54:17.292Z,12.37
2023-01-01T20:56:45.510Z,8.33
2023-01-01T20:59:34.279Z,1.90
2023-01-01T21:02:06.101Z,4.63
2023-01-01T21:04:38.511Z,9.73
2023-01-01T21:07:07.909Z,7.93
2023-01-01T21:09:36.201Z,11.97
2023-01-01T21:12:05.640Z,36.23
2023-01-01T21:14:34.353Z,42.33
2023-01-01T21:17:18.512Z,32.57
2023-01-01T21:19:46.897Z,34.73
2023-01-01T21:22:15.655Z,36.37
2023-01-01T21:24:46.303Z,48.57
2023-01-01T21:27:25.259Z,41.30
2023-01-01T21:29:58.206Z,25.93
2023-01-01T21:32:38.301Z,19.40
2023-01-01T21:35:19.334Z,17.07
2023-01-01T21:37:52.331Z,15.47
2023-01-01T21:40:41.728Z,15.07
2023-01-01T21:43:35.040Z,19.83
2023-01-01T21:46:35.971Z,13.40
2023-01-01T21:49:18.603Z,10.40
2023-01-01T21:51:54.810Z,4.93
2023-01-01T21:54:28.107Z,6.70
2023-01-01T21:56:59.594Z,4.67
2023-01-01T21:59:36.605Z,3.50
2023-01-01T22:02:37.750Z,2.00
2023-01-01T22:05:31.983Z,2.30
2023-01-01T22:08:06.827Z,3.13
2023-01-01T22:10:36.734Z,2.00
2023-01-01T22:13:15.664Z,2.83
2023-01-01T22:15:45.742Z,2.00
2023-01-01T22:18:23.364Z,1.13
2023-01-01T22:20:53.833Z,1.30
2023-01-01T22:23:36.166Z,0.83
2023-01-01T22:26:15.825Z,1.50
2023-01-01T22:28:46.527Z,0.83
2023-01-01T22:31:21.833Z,0.50
2023-01-01T22:33:52.181Z,1.10
2023-01-01T22:36:26.640Z,0.50
2023-01-01T22:38:59.290Z,0.50
2023-01-01T22:41:27.526Z,0.67
2023-01-01T22:44:03.532Z,0.60
2023-01-01T22:46:37.681Z,0.33
2023-01-01T22:49:19.813Z,0.73
2023-01-01T22:51:54.510Z,0.67
2023-01-01T22:54:22.810Z,1.20
2023-01-01T22:56:50.995Z,0.83
2023-01-01T22:59:19.118Z,0.70
2023-01-01T23:01:47.553Z,0.70
2023-01-01T23:04:16.105Z,0.80
2023-01-01T23:06:44.373Z,0.40
2023-01-01T23:09:14.174Z,0.60
2023-01-01T23:11:42.413Z,0.57
2023-01-01T23:14:28.320Z,0.50
2023-01-01T23:16:56.549Z,0.60
2023-01-01T23:19:24.842Z,0.77
2023-01-01T23:21:54.330Z,0.83
2023-01-01T23:24:25.658Z,0.97
2023-01-01T23:26:54.712Z,0.70
2023-01-01T23:29:24.795Z,0.50
2023-01-01T23:31:53.205Z,0.70
2023-01-01T23:34:21.344Z,0.80
2023-01-01T23:36:52.454Z,0.70
2023-01-01T23:39:20.612Z,1.07
2023-01-01T23:41:51.482Z,0.60
2023-01-01T23:44:19.707Z,0.50
2023-01-01T23:46:48.575Z,0.80
2023-01-01T23:49:18.329Z,0.73
2023-01-01T23:51:46.966Z,0.80
2023-01-01T23:54:15.204Z,0.60
2023-01-01T23:56:43.499Z,0.90
2023-01-01T23:59:13.052Z,0.60
